EZY516 LEPA-EDDS
Flight info
| Callsign | EZY516 |
|---|---|
| Flight time | N/A |
| Altitude | 38000 |
| Route | MEROS5A MEROS N853 LUMAS DCT MAXIR DCT LUSOL DCT BODRU DCT OKTET DCT IRMAR DCT KINES DCT VANAS DCT MOBLO DCT LAMUR DCT KORED DCT BERSU N871 DITON T163 ZUE T125 REUTL REUTL1W |
| Aircraft | A20N/M-VGD/A |
Departure
| Time | 2026-05-03 20:31 |
|---|---|
| Airport | Palma de Mallorca Airport (LEPA) |
Arrival
| Time | N/A |
|---|---|
| Airport | Stuttgart Airport (EDDS) |
| Time | Latitude | Longitude | Altitude | Speed | Heading |
|---|---|---|---|---|---|
| 2026-05-03 20:15 | 39.55020 | 2.73489 | 41 ft | 0 kts | 165° |
| 2026-05-03 20:16 | 39.55027 | 2.73486 | 40 ft | 2 kts | 161° |
| 2026-05-03 20:16 | 39.55042 | 2.73479 | 39 ft | 2 kts | 155° |
| 2026-05-03 20:16 | 39.55056 | 2.73468 | 40 ft | 2 kts | 132° |
| 2026-05-03 20:17 | 39.55061 | 2.73448 | 41 ft | 2 kts | 77° |
| 2026-05-03 20:17 | 39.55058 | 2.73436 | 41 ft | 1 kts | 65° |
| 2026-05-03 20:18 | 39.55058 | 2.73437 | 41 ft | 0 kts | 64° |
| 2026-05-03 20:18 | 39.55059 | 2.73439 | 41 ft | 0 kts | 64° |
| 2026-05-03 20:19 | 39.55061 | 2.73443 | 41 ft | 0 kts | 64° |
| 2026-05-03 20:21 | 39.55061 | 2.73444 | 41 ft | 0 kts | 64° |
| 2026-05-03 20:21 | 39.55061 | 2.73445 | 41 ft | 0 kts | 64° |
| 2026-05-03 20:21 | 39.55062 | 2.73447 | 41 ft | 0 kts | 64° |
| 2026-05-03 20:22 | 39.55064 | 2.73453 | 40 ft | 2 kts | 64° |
| 2026-05-03 20:22 | 39.55078 | 2.73483 | 41 ft | 6 kts | 58° |
| 2026-05-03 20:22 | 39.55104 | 2.73538 | 40 ft | 8 kts | 62° |
| 2026-05-03 20:22 | 39.55136 | 2.73604 | 41 ft | 8 kts | 58° |
| 2026-05-03 20:23 | 39.55173 | 2.73682 | 41 ft | 12 kts | 63° |
| 2026-05-03 20:23 | 39.55168 | 2.73781 | 41 ft | 11 kts | 77° |
| 2026-05-03 20:23 | 39.55213 | 2.73819 | 41 ft | 6 kts | 336° |
| 2026-05-03 20:23 | 39.55260 | 2.73785 | 41 ft | 10 kts | 330° |
| 2026-05-03 20:24 | 39.55328 | 2.73734 | 41 ft | 13 kts | 330° |
| 2026-05-03 20:24 | 39.55407 | 2.73667 | 41 ft | 14 kts | 328° |
| 2026-05-03 20:24 | 39.55500 | 2.73595 | 41 ft | 17 kts | 329° |
| 2026-05-03 20:24 | 39.55608 | 2.73512 | 40 ft | 18 kts | 340° |
| 2026-05-03 20:25 | 39.55683 | 2.73563 | 41 ft | 11 kts | 57° |
| 2026-05-03 20:25 | 39.55730 | 2.73661 | 41 ft | 14 kts | 58° |
| 2026-05-03 20:25 | 39.55786 | 2.73781 | 41 ft | 17 kts | 58° |
| 2026-05-03 20:25 | 39.55854 | 2.73925 | 41 ft | 20 kts | 58° |
| 2026-05-03 20:26 | 39.55929 | 2.74081 | 41 ft | 22 kts | 58° |
| 2026-05-03 20:26 | 39.55990 | 2.74210 | 41 ft | 12 kts | 58° |
| 2026-05-03 20:26 | 39.56036 | 2.74310 | 41 ft | 14 kts | 59° |
| 2026-05-03 20:26 | 39.56095 | 2.74428 | 41 ft | 16 kts | 47° |
| 2026-05-03 20:27 | 39.56131 | 2.74452 | 41 ft | 6 kts | 15° |
| 2026-05-03 20:27 | 39.56142 | 2.74454 | 41 ft | 0 kts | 3° |
| 2026-05-03 20:28 | 39.56143 | 2.74454 | 41 ft | 0 kts | 3° |
| 2026-05-03 20:28 | 39.56155 | 2.74453 | 41 ft | 3 kts | 351° |
| 2026-05-03 20:29 | 39.56185 | 2.74436 | 40 ft | 6 kts | 328° |
| 2026-05-03 20:29 | 39.56232 | 2.74394 | 41 ft | 9 kts | 321° |
| 2026-05-03 20:29 | 39.56247 | 2.74308 | 39 ft | 12 kts | 245° |
| 2026-05-03 20:29 | 39.56190 | 2.74190 | 40 ft | 38 kts | 238° |
| 2026-05-03 20:30 | 39.55905 | 2.73581 | 40 ft | 120 kts | 238° |
| 2026-05-03 20:30 | 39.55324 | 2.72352 | 107 ft | 189 kts | 239° |
| 2026-05-03 20:30 | 39.54552 | 2.70735 | 272 ft | 235 kts | 237° |
| 2026-05-03 20:30 | 39.53603 | 2.68818 | 607 ft | 265 kts | 237° |
| 2026-05-03 20:31 | 39.52587 | 2.66788 | 1182 ft | 266 kts | 235° |
| 2026-05-03 20:31 | 39.51654 | 2.64909 | 1584 ft | 231 kts | 234° |
| 2026-05-03 20:31 | 39.50838 | 2.63248 | 1807 ft | 208 kts | 235° |
| 2026-05-03 20:31 | 39.50329 | 2.62200 | 1880 ft | 199 kts | 235° |
| 2026-05-03 20:32 | 39.49388 | 2.60254 | 1894 ft | 187 kts | 235° |
| 2026-05-03 20:32 | 39.48457 | 2.58845 | 1919 ft | 232 kts | 216° |
| 2026-05-03 20:32 | 39.46935 | 2.57718 | 2181 ft | 269 kts | 207° |